Latest Weather Observations for Fortescue Dave Forrest

IDW60801

Issued at 9:02 pm WST Monday 3 August 2015 (issued every 30 minutes, with the page automatically refreshed every 10 minutes)

About weather observations | Map of weather stations | Latest weather observations for WA | Other Formats
Station Details ID: 505056 Name: FORTESCUE DAVE FORREST Lat: -22.29 Lon: 119.43 Height: 474.6 m
Data from the previous 72 hours. | See also: Recent months for locations in Western Australia
Date/Time
WST
Temp
°C
App
Temp
°C
Dew
Point
Rel
Hum
%
Delta-T
°C
Wind Press
QNH
hPa
Press
MSL
hPa
Rain
since 9 am
mm
Dir
 
Spd
km/h
Gust
km/h
Spd
kts
Gust
kts
03/09:00pm 16.9 13.6 6.2 49 5.3 SE 13 19 7 10 1025.4 1024.3 0.0
03/08:30pm 17.6 13.8 5.8 46 5.9 SE 15 20 8 11 1025.2 1024.1 0.0
03/08:00pm 18.3 14.5 5.6 43 6.3 SE 15 20 8 11 1025.0 1023.9 0.0
03/07:30pm 18.9 14.7 5.8 42 6.6 SE 17 26 9 14 1024.4 1023.3 0.0
03/07:00pm 19.3 15.1 5.9 41 6.8 SE 17 24 9 13 1024.2 1023.1 0.0
03/06:30pm 19.8 15.6 5.8 40 7.1 SE 17 30 9 16 1023.8 1022.7 0.0
03/06:00pm 20.4 15.8 5.7 38 7.4 SE 19 26 10 14 1023.4 1022.3 0.0
03/05:30pm 21.1 16.3 5.7 36 7.9 SE 20 32 11 17 1023.2 1022.1 0.0
03/05:00pm 21.9 17.3 5.6 34 8.3 SE 19 32 10 17 1023.1 1022.0 0.0
03/04:30pm 22.6 17.8 5.8 33 8.7 SE 20 33 11 18 1023.1 1022.0 0.0
03/04:00pm 23.0 17.9 5.9 33 8.8 SE 22 39 12 21 1023.1 1022.0 0.0
03/03:30pm 22.8 17.3 5.9 33 8.7 SE 24 39 13 21 1023.1 1022.0 0.0
03/03:00pm 23.1 17.6 6.1 33 8.8 SE 24 35 13 19 1023.1 1022.0 0.0
03/02:30pm 23.1 17.6 6.1 33 8.9 SE 24 41 13 22 1023.1 1022.0 0.0
03/02:00pm 22.8 16.9 5.8 33 8.8 ESE 26 39 14 21 1023.2 1022.1 0.0
03/01:30pm 22.4 16.2 6.1 34 8.4 ESE 28 37 15 20 1023.6 1022.5 0.0
03/01:00pm 21.4 14.8 5.9 36 7.9 ESE 30 39 16 21 1024.2 1023.1 0.0
03/12:30pm 21.4 15.2 6.1 37 7.9 ESE 28 37 15 20 1024.8 1023.7 0.0
03/12:17pm 21.1 14.9 6.1 37 7.7 ESE 28 46 15 25 1025.0 1023.9 0.0
03/12:00pm 20.3 14.9 6.3 40 7.2 SE 24 41 13 22 1025.3 1024.2 0.0
03/11:38am 20.1 13.9 6.1 40 7.2 ESE 28 46 15 25 1025.7 1024.6 0.0
03/11:30am 19.8 14.4 6.2 41 6.9 SE 24 35 13 19 1025.8 1024.7 0.0
03/11:00am 18.7 12.1 6.2 44 6.3 ESE 30 43 16 23 1026.1 1025.0 0.0
03/10:30am 17.8 11.7 6.6 48 5.7 SE 28 39 15 21 1026.4 1025.4 0.0
03/10:00am 16.3 9.8 6.3 51 5.0 SE 30 41 16 22 1026.5 1025.5 0.0
03/09:30am 15.5 8.4 6.4 54 4.5 ESE 33 46 18 25 1026.6 1025.6 0.0
03/09:00am 14.7 8.3 6.9 59 3.9 SE 30 41 16 22 1026.5 1025.5 0.0
03/08:30am 14.0 8.0 6.9 62 3.5 SE 28 43 15 23 1026.3 1025.3 0.0
03/08:00am 13.2 7.9 7.0 66 3.1 SE 24 37 13 20 1026.0 1024.9 0.0
03/07:30am 12.7 7.5 7.1 69 2.8 SE 24 37 13 20 1025.8 1024.7 0.0
03/07:00am 12.3 7.1 7.3 71 2.5 SE 24 33 13 18 1025.3 1024.2 0.0
03/06:30am 12.4 7.6 7.3 71 2.5 SE 22 32 12 17 1025.0 1023.9 0.0
03/06:00am 12.5 7.8 7.7 72 2.4 SE 22 35 12 19 1024.5 1023.5 0.0
03/05:30am 13.1 8.1 7.9 70 2.6 SE 24 39 13 21 1024.2 1023.1 0.0
03/05:00am 13.7 7.9 8.1 69 2.8 SE 28 43 15 23 1023.8 1022.7 0.0
03/04:30am 14.0 8.3 8.3 68 2.9 SE 28 41 15 22 1023.4 1022.3 0.0
03/04:13am 14.2 8.5 8.3 67 3.0 SE 28 46 15 25 1023.2 1022.1 0.0
03/04:00am 14.4 8.8 8.6 68 3.0 SE 28 43 15 23 1023.2 1022.1 0.0
03/03:30am 14.8 8.5 9.0 68 3.0 SE 32 46 17 25 1023.0 1021.9 0.0
03/03:00am 15.1 10.1 9.4 69 3.0 SE 26 43 14 23 1023.1 1022.0 0.0
03/02:30am 15.4 10.1 9.7 69 3.0 SE 28 41 15 22 1023.1 1022.0 0.0
03/02:00am 15.9 10.6 9.7 66 3.3 SE 28 41 15 22 1023.2 1022.1 0.0
03/01:30am 16.2 11.6 9.8 66 3.4 SE 24 35 13 19 1023.2 1022.1 0.0
03/01:00am 16.4 12.2 9.7 64 3.6 SE 22 32 12 17 1023.3 1022.2 0.0
03/12:30am 16.8 12.7 10.0 64 3.7 SE 22 33 12 18 1023.4 1022.3 0.0
03/12:00am 17.1 13.0 10.1 63 3.8 SE 22 32 12 17 1023.5 1022.4 0.0
 
Date/Time
WST
Temp
°C
App
Temp
°C
Dew
Point
Rel
Hum
%
Delta-T
°C
Wind Press
QNH
hPa
Press
MSL
hPa
Rain
since 9 am
mm
Dir
 
Spd
km/h
Gust
km/h
Spd
kts
Gust
kts
02/11:30pm 17.3 14.1 10.1 62 3.9 SE 17 26 9 14 1023.6 1022.5 0.0
02/11:00pm 17.7 14.1 10.0 60 4.2 SE 19 30 10 16 1023.7 1022.6 0.0
02/10:30pm 17.9 14.6 9.6 58 4.5 SE 17 30 9 16 1023.7 1022.6 0.0
02/10:00pm 18.3 15.0 9.4 56 4.8 SE 17 28 9 15 1023.5 1022.4 0.0
02/09:30pm 18.9 16.3 9.3 53 5.2 SE 13 22 7 12 1023.6 1022.5 0.0
02/09:00pm 19.7 16.7 9.1 50 5.7 SE 15 22 8 12 1023.4 1022.3 0.0
02/08:30pm 19.7 17.0 9.1 50 5.7 SE 13 19 7 10 1023.3 1022.2 0.0
02/08:00pm 19.6 17.4 9.2 51 5.6 SE 11 19 6 10 1023.0 1021.9 0.0
02/07:30pm 19.9 18.0 9.0 49 5.9 SE 9 13 5 7 1022.6 1021.4 0.0
02/07:00pm 20.6 18.2 8.7 46 6.4 SSE 11 13 6 7 1022.4 1021.2 0.0
02/06:30pm 21.3 19.2 8.2 43 7.0 SSE 9 13 5 7 1021.9 1020.8 0.0
02/06:00pm 22.1 19.8 7.5 39 7.7 SSE 9 17 5 9 1021.6 1020.5 0.0
02/05:30pm 23.5 20.5 7.7 36 8.5 SSE 13 20 7 11 1021.3 1020.2 0.0
02/05:00pm 24.7 20.5 7.5 33 9.2 SE 19 26 10 14 1021.1 1020.0 0.0
02/04:30pm 25.3 21.6 8.0 33 9.4 SE 17 28 9 15 1020.9 1019.8 0.0
02/04:00pm 25.5 21.7 7.7 32 9.6 SE 17 32 9 17 1020.8 1019.6 0.0
02/03:30pm 25.7 21.5 7.6 31 9.8 ESE 19 26 10 14 1020.7 1019.5 0.0
02/03:00pm 26.0 22.4 8.2 32 9.8 SE 17 24 9 13 1020.8 1019.6 0.0
02/02:30pm 25.8 21.8 8.2 32 9.7 SE 19 30 10 16 1020.9 1019.8 0.0
02/02:00pm 25.5 21.5 8.4 33 9.4 SSE 19 28 10 15 1021.1 1020.0 0.0
02/01:30pm 25.7 21.6 8.5 33 9.5 SE 20 32 11 17 1021.3 1020.2 0.0
02/01:00pm 24.6 20.4 8.4 35 8.8 SE 20 32 11 17 1021.5 1020.4 0.0
02/12:30pm 23.9 19.7 8.3 37 8.5 SE 20 33 11 18 1021.9 1020.8 0.0
02/12:00pm 23.6 19.7 8.7 38 8.1 SE 19 32 10 17 1022.1 1021.0 0.0
02/11:30am 23.0 18.9 8.7 40 7.8 SE 20 30 11 16 1022.6 1021.4 0.0
02/11:00am 21.8 17.9 8.6 42 7.1 SE 19 26 10 14 1022.9 1021.8 0.0
02/10:30am 20.8 16.1 7.8 43 6.9 SE 22 33 12 18 1023.4 1022.3 0.0
02/10:00am 19.8 15.1 7.9 46 6.3 SE 22 33 12 18 1023.4 1022.3 0.0
02/09:30am 18.8 14.5 8.0 49 5.7 SE 20 30 11 16 1023.3 1022.2 0.0
02/09:00am 17.6 12.5 7.8 52 5.1 SE 24 35 13 19 1023.3 1022.2 0.0
02/08:30am 16.3 12.0 8.0 58 4.3 SE 20 30 11 16 1023.2 1022.1 0.0
02/08:00am 15.0 10.9 7.9 62 3.6 SE 19 28 10 15 1022.8 1021.7 0.0
02/07:30am 14.2 11.2 7.9 66 3.2 SE 13 20 7 11 1022.6 1021.4 0.0
02/07:00am 12.9 10.3 7.7 70 2.6 SSE 11 17 6 9 1022.0 1020.9 0.0
02/06:30am 12.6 9.9 7.5 71 2.5 SSE 11 17 6 9 1021.5 1020.4 0.0
02/06:00am 13.6 10.6 7.6 67 3.0 SSE 13 22 7 12 1021.0 1019.9 0.0
02/05:30am 13.9 11.4 8.3 69 2.9 SSE 11 19 6 10 1020.6 1019.4 0.0
02/05:00am 14.2 11.3 8.2 67 3.1 SSE 13 17 7 9 1020.4 1019.2 0.0
02/04:30am 14.4 12.0 8.7 68 3.0 SSE 11 17 6 9 1020.0 1018.9 0.0
02/04:00am 14.2 12.2 8.8 70 2.8 SSE 9 13 5 7 1020.2 1019.0 0.0
02/03:30am 14.7 12.5 9.3 70 2.8 SSE 11 15 6 8 1020.2 1019.0 0.0
02/03:00am 14.8 12.7 9.8 72 2.6 SSE 11 13 6 7 1020.2 1019.0 0.0
02/02:30am 15.2 13.5 9.8 70 2.9 SSE 9 13 5 7 1020.2 1019.0 0.0
02/02:00am 15.8 13.7 9.7 67 3.2 SSE 11 15 6 8 1020.3 1019.1 0.0
02/01:30am 16.2 14.1 9.8 66 3.4 SSE 11 13 6 7 1020.3 1019.1 0.0
02/01:00am 16.4 14.2 9.5 63 3.7 SSE 11 13 6 7 1020.4 1019.2 0.0
02/12:30am 16.5 14.8 9.8 64 3.6 SE 9 11 5 6 1020.3 1019.1 0.0
02/12:00am 17.1 15.0 9.7 61 4.0 SE 11 13 6 7 1020.2 1019.0 0.0
 
Date/Time
WST
Temp
°C
App
Temp
°C
Dew
Point
Rel
Hum
%
Delta-T
°C
Wind Press
QNH
hPa
Press
MSL
hPa
Rain
since 9 am
mm
Dir
 
Spd
km/h
Gust
km/h
Spd
kts
Gust
kts
01/11:30pm 18.1 15.5 9.4 57 4.7 SSE 13 19 7 10 1020.2 1019.0 0.0
01/11:00pm 17.9 16.1 9.6 58 4.5 SSE 9 11 5 6 1020.2 1019.0 0.0
01/10:30pm 18.1 16.4 9.8 58 4.5 SE 9 13 5 7 1020.2 1019.0 0.0
01/10:00pm 18.8 17.1 9.8 56 4.9 SE 9 11 5 6 1020.2 1019.0 0.0
01/09:30pm 19.7 17.9 9.6 52 5.5 SSE 9 15 5 8 1020.0 1018.9 0.0
01/09:00pm 20.1 18.8 9.3 49 5.8 SSW 6 9 3 5 1019.8 1018.7 0.0
01/08:30pm 21.5 18.8 9.1 45 6.8 S 13 26 7 14 1019.4 1018.3 0.0
01/08:00pm 19.8 18.2 8.8 49 5.9 NW 7 9 4 5 1019.0 1017.8 0.0
01/07:30pm 21.1 20.3 8.3 43 6.9 WNW 2 4 1 2 1018.6 1017.4 0.0
01/07:00pm 21.8 21.2 9.0 44 7.0 W 2 2 1 1 1018.2 1017.0 0.0
01/06:30pm 23.0 21.9 8.3 39 8.0 WNW 4 6 2 3 1017.7 1016.6 0.0
01/06:00pm 24.4 23.3 8.4 36 8.7 W 4 7 2 4 1017.4 1016.3 0.0
01/05:30pm 26.0 24.2 8.1 32 9.8 WSW 7 9 4 5 1017.2 1016.1 0.0
01/05:00pm 26.9 25.2 7.6 29 10.5 NW 6 9 3 5 1016.9 1015.7 0.0
01/04:30pm 26.8 24.4 7.0 28 10.7 WNW 9 15 5 8 1016.9 1015.7 0.0
01/04:00pm 26.9 25.3 7.8 29 10.5 WNW 6 13 3 7 1016.8 1015.6 0.0
01/03:30pm 26.9 24.9 8.5 31 10.2 W 9 13 5 7 1016.7 1015.5 0.0
01/03:00pm 27.0 26.4 8.9 32 10.1 SW 2 7 1 4 1016.8 1015.6 0.0
01/02:30pm 26.3 24.4 9.1 33 9.6 W 9 13 5 7 1017.0 1015.8 0.0
01/02:00pm 26.4 24.6 9.3 34 9.6 NNW 9 20 5 11 1017.2 1016.1 0.0
01/01:30pm 26.6 25.7 9.3 33 9.7 NW 4 13 2 7 1017.5 1016.4 0.0
01/01:00pm 25.6 23.1 9.6 36 9.0 SW 13 20 7 11 1017.8 1016.7 0.0
01/12:30pm 25.4 24.7 11.4 41 8.1 SW 6 15 3 8 1018.2 1017.0 0.0
01/12:00pm 24.9 24.3 12.3 45 7.4 SSW 7 17 4 9 1018.8 1017.6 0.0
01/11:30am 23.8 22.6 12.7 49 6.5 SE 11 22 6 12 1019.1 1018.0 0.0
01/11:00am 23.7 22.0 12.5 49 6.5 SE 13 20 7 11 1019.5 1018.4 0.0
01/10:30am 22.4 21.1 12.4 53 5.8 S 11 20 6 11 1019.8 1018.7 0.0
01/10:00am 22.4 20.7 12.3 52 5.8 S 13 22 7 12 1020.3 1019.1 0.0
01/09:30am 21.6 19.1 12.3 55 5.4 SSE 17 26 9 14 1020.2 1019.0 0.0
01/09:00am 20.8 18.5 11.8 56 5.1 SSE 15 22 8 12 1019.8 1018.7 0.0
01/08:30am 20.3 18.8 10.4 53 5.5 SSE 9 15 5 8 1019.4 1018.3 0.0
01/08:00am 18.8 18.1 8.6 51 5.4 E 2 2 1 1 1019.0 1017.8 0.0
01/07:30am 16.0 15.0 7.5 57 4.3 SW 2 4 1 2 1018.6 1017.9 0.0
01/07:00am 14.3 13.3 7.3 63 3.5 E 2 2 1 1 1018.2 1017.5 0.0
01/06:30am 14.8 13.7 7.0 59 3.9 W 2 4 1 2 1017.7 1017.0 0.0
01/06:00am 14.9 13.4 6.9 58 4.0 WNW 4 6 2 3 1017.3 1016.6 0.0
01/05:30am 16.5 14.6 6.7 52 4.9 W 6 7 3 4 1017.1 1016.4 0.0
01/05:00am 16.6 15.4 6.6 51 5.0 W 2 7 1 4 1016.9 1016.2 0.0
01/04:30am 17.9 16.0 6.7 48 5.7 WNW 6 7 3 4 1016.8 1016.1 0.0
01/04:00am 15.1 13.4 5.8 53 4.6 WSW 4 9 2 5 1016.7 1016.0 0.0
01/03:30am 17.9 14.1 5.8 45 6.1 W 15 17 8 9 1016.7 1016.0 0.0
01/03:00am 17.3 14.5 5.1 44 6.0 WNW 9 13 5 7 1016.8 1016.1 0.0
01/02:30am 16.6 13.4 5.0 46 5.7 WNW 11 13 6 7 1016.9 1016.2 0.0
01/02:00am 16.5 13.2 4.7 45 5.7 WNW 11 13 6 7 1017.1 1016.4 0.0
01/01:30am 17.9 14.2 4.4 41 6.6 WNW 13 15 7 8 1017.4 1016.7 0.0
01/01:00am 18.2 14.5 4.2 39 6.8 WNW 13 15 7 8 1017.6 1016.9 0.0
01/12:30am 18.7 14.9 4.1 38 7.1 WNW 13 19 7 10 1017.8 1017.1 0.0
01/12:00am 18.8 15.0 4.0 37 7.2 WNW 13 17 7 9 1017.7 1017.0 0.0
 
Date/Time
WST
Temp
°C
App
Temp
°C
Dew
Point
Rel
Hum
%
Delta-T
°C
Wind Press
QNH
hPa
Press
MSL
hPa
Rain
since 9 am
mm
Dir
 
Spd
km/h
Gust
km/h
Spd
kts
Gust
kts
31/11:30pm 19.6 15.0 3.9 35 7.7 W 17 22 9 12 1017.8 1017.1 0.0
31/11:00pm 19.7 15.5 3.6 34 7.8 WNW 15 20 8 11 1017.7 1017.0 0.0
31/10:30pm 20.7 16.4 3.2 31 8.5 NW 15 20 8 11 1017.4 1016.7 0.0
31/10:00pm 21.1 16.4 3.1 30 8.7 NW 17 22 9 12 1017.5 1016.8 0.0
31/09:30pm 20.8 17.3 3.4 31 8.5 NNW 11 15 6 8 1017.4 1016.7 0.0

Other Formats:

Comma delimited format used in spreadsheet applications
http://www.bom.gov.au/fwo/IDW60801/IDW60801.99736.axf

JavaScript Object Notation format (JSON) in row-major order
http://www.bom.gov.au/fwo/IDW60801/IDW60801.99736.json